sensor_id;sensor_type;location;lat;lon;timestamp;P1;durP1;ratioP1;P2;durP2;ratioP2
29730;SDS011;16639;51.488;0.152;2022-07-01T00:00:43;7.90;;;2.08;;
29730;SDS011;16639;51.488;0.152;2022-07-01T00:03:10;7.72;;;1.70;;
29730;SDS011;16639;51.488;0.152;2022-07-01T00:05:38;8.18;;;1.90;;
29730;SDS011;16639;51.488;0.152;2022-07-01T00:08:05;8.65;;;1.63;;
29730;SDS011;16639;51.488;0.152;2022-07-01T00:10:33;6.03;;;1.95;;
29730;SDS011;16639;51.488;0.152;2022-07-01T00:13:01;5.47;;;1.60;;
29730;SDS011;16639;51.488;0.152;2022-07-01T00:15:29;5.03;;;1.95;;
29730;SDS011;16639;51.488;0.152;2022-07-01T00:17:56;5.20;;;1.88;;
29730;SDS011;16639;51.488;0.152;2022-07-01T00:20:24;4.40;;;1.80;;
29730;SDS011;16639;51.488;0.152;2022-07-01T00:22:51;3.63;;;1.80;;
29730;SDS011;16639;51.488;0.152;2022-07-01T00:25:19;4.93;;;1.77;;
29730;SDS011;16639;51.488;0.152;2022-07-01T00:27:46;11.95;;;1.90;;
29730;SDS011;16639;51.488;0.152;2022-07-01T00:30:14;7.78;;;2.13;;
29730;SDS011;16639;51.488;0.152;2022-07-01T00:32:41;6.97;;;2.50;;
29730;SDS011;16639;51.488;0.152;2022-07-01T00:35:09;8.00;;;2.00;;
29730;SDS011;16639;51.488;0.152;2022-07-01T00:37:37;6.28;;;1.65;;
29730;SDS011;16639;51.488;0.152;2022-07-01T00:40:06;6.07;;;1.85;;
29730;SDS011;16639;51.488;0.152;2022-07-01T00:42:37;5.65;;;1.33;;
29730;SDS011;16639;51.488;0.152;2022-07-01T00:45:06;6.93;;;2.00;;
29730;SDS011;16639;51.488;0.152;2022-07-01T00:47:36;4.10;;;1.75;;
29730;SDS011;16639;51.488;0.152;2022-07-01T00:50:06;8.00;;;2.03;;
29730;SDS011;16639;51.488;0.152;2022-07-01T00:52:35;6.72;;;1.80;;
29730;SDS011;16639;51.488;0.152;2022-07-01T00:55:03;10.55;;;2.25;;
29730;SDS011;16639;51.488;0.152;2022-07-01T00:57:33;7.65;;;1.60;;
29730;SDS011;16639;51.488;0.152;2022-07-01T01:00:20;8.13;;;1.67;;
29730;SDS011;16639;51.488;0.152;2022-07-01T01:02:51;9.70;;;2.55;;
29730;SDS011;16639;51.488;0.152;2022-07-01T01:05:18;2.85;;;1.80;;
29730;SDS011;16639;51.488;0.152;2022-07-01T01:07:48;6.00;;;1.67;;
29730;SDS011;16639;51.488;0.152;2022-07-01T01:10:17;4.32;;;2.22;;
29730;SDS011;16639;51.488;0.152;2022-07-01T01:12:45;9.15;;;2.35;;
29730;SDS011;16639;51.488;0.152;2022-07-01T01:15:19;7.57;;;2.10;;
29730;SDS011;16639;51.488;0.152;2022-07-01T01:17:47;11.82;;;2.78;;
29730;SDS011;16639;51.488;0.152;2022-07-01T01:20:18;9.68;;;2.20;;
29730;SDS011;16639;51.488;0.152;2022-07-01T01:22:46;10.88;;;2.35;;
29730;SDS011;16639;51.488;0.152;2022-07-01T01:25:15;7.43;;;2.40;;
29730;SDS011;16639;51.488;0.152;2022-07-01T01:27:43;7.07;;;2.15;;
29730;SDS011;16639;51.488;0.152;2022-07-01T01:30:11;4.75;;;1.77;;
29730;SDS011;16639;51.488;0.152;2022-07-01T01:32:39;6.80;;;3.00;;
29730;SDS011;16639;51.488;0.152;2022-07-01T01:35:08;8.52;;;2.58;;
29730;SDS011;16639;51.488;0.152;2022-07-01T01:37:36;9.18;;;2.47;;
29730;SDS011;16639;51.488;0.152;2022-07-01T01:40:04;9.27;;;2.40;;
29730;SDS011;16639;51.488;0.152;2022-07-01T01:42:32;10.57;;;1.88;;
29730;SDS011;16639;51.488;0.152;2022-07-01T01:45:00;7.60;;;2.38;;
29730;SDS011;16639;51.488;0.152;2022-07-01T01:47:27;9.80;;;2.30;;
29730;SDS011;16639;51.488;0.152;2022-07-01T01:49:54;6.78;;;3.15;;
29730;SDS011;16639;51.488;0.152;2022-07-01T01:52:22;7.03;;;2.20;;
29730;SDS011;16639;51.488;0.152;2022-07-01T01:54:49;7.93;;;2.05;;
29730;SDS011;16639;51.488;0.152;2022-07-01T01:57:17;7.45;;;2.03;;
29730;SDS011;16639;51.488;0.152;2022-07-01T01:59:44;12.50;;;3.10;;
29730;SDS011;16639;51.488;0.152;2022-07-01T02:02:11;9.70;;;3.28;;
29730;SDS011;16639;51.488;0.152;2022-07-01T02:04:39;11.65;;;2.80;;
29730;SDS011;16639;51.488;0.152;2022-07-01T02:07:07;7.72;;;3.08;;
29730;SDS011;16639;51.488;0.152;2022-07-01T02:09:35;9.15;;;3.13;;
29730;SDS011;16639;51.488;0.152;2022-07-01T02:12:02;7.40;;;2.03;;
29730;SDS011;16639;51.488;0.152;2022-07-01T02:14:31;8.80;;;2.33;;
29730;SDS011;16639;51.488;0.152;2022-07-01T02:16:58;9.25;;;3.42;;
29730;SDS011;16639;51.488;0.152;2022-07-01T02:19:25;7.47;;;2.25;;
29730;SDS011;16639;51.488;0.152;2022-07-01T02:21:53;9.02;;;2.92;;
29730;SDS011;16639;51.488;0.152;2022-07-01T02:24:20;8.20;;;2.63;;
29730;SDS011;16639;51.488;0.152;2022-07-01T02:26:48;6.55;;;1.83;;
29730;SDS011;16639;51.488;0.152;2022-07-01T02:29:15;4.25;;;2.15;;
29730;SDS011;16639;51.488;0.152;2022-07-01T02:31:42;7.93;;;2.30;;
29730;SDS011;16639;51.488;0.152;2022-07-01T02:34:10;9.73;;;2.50;;
29730;SDS011;16639;51.488;0.152;2022-07-01T02:36:37;8.60;;;2.72;;
29730;SDS011;16639;51.488;0.152;2022-07-01T02:39:05;9.00;;;2.40;;
29730;SDS011;16639;51.488;0.152;2022-07-01T02:41:32;7.80;;;2.42;;
29730;SDS011;16639;51.488;0.152;2022-07-01T02:44:19;7.05;;;2.90;;
29730;SDS011;16639;51.488;0.152;2022-07-01T02:46:47;4.85;;;2.00;;
29730;SDS011;16639;51.488;0.152;2022-07-01T02:49:14;7.95;;;2.53;;
29730;SDS011;16639;51.488;0.152;2022-07-01T02:51:42;4.72;;;1.80;;
29730;SDS011;16639;51.488;0.152;2022-07-01T02:54:09;6.20;;;2.40;;
29730;SDS011;16639;51.488;0.152;2022-07-01T02:56:37;6.45;;;2.00;;
29730;SDS011;16639;51.488;0.152;2022-07-01T02:59:04;8.10;;;2.58;;
29730;SDS011;16639;51.488;0.152;2022-07-01T03:01:31;11.48;;;2.50;;
29730;SDS011;16639;51.488;0.152;2022-07-01T03:03:59;7.32;;;2.20;;
29730;SDS011;16639;51.488;0.152;2022-07-01T03:06:26;7.97;;;2.53;;
29730;SDS011;16639;51.488;0.152;2022-07-01T03:08:54;12.43;;;2.42;;
29730;SDS011;16639;51.488;0.152;2022-07-01T03:11:22;19.33;;;3.03;;
29730;SDS011;16639;51.488;0.152;2022-07-01T03:13:50;7.28;;;2.55;;
29730;SDS011;16639;51.488;0.152;2022-07-01T03:16:17;10.25;;;2.30;;
29730;SDS011;16639;51.488;0.152;2022-07-01T03:18:45;5.43;;;2.13;;
29730;SDS011;16639;51.488;0.152;2022-07-01T03:21:12;7.07;;;1.80;;
29730;SDS011;16639;51.488;0.152;2022-07-01T03:23:39;9.80;;;2.78;;
29730;SDS011;16639;51.488;0.152;2022-07-01T03:26:07;4.40;;;2.38;;
29730;SDS011;16639;51.488;0.152;2022-07-01T03:28:34;8.15;;;2.75;;
29730;SDS011;16639;51.488;0.152;2022-07-01T03:31:01;10.88;;;2.88;;
29730;SDS011;16639;51.488;0.152;2022-07-01T03:33:29;12.07;;;2.42;;
29730;SDS011;16639;51.488;0.152;2022-07-01T03:35:59;9.38;;;3.20;;
29730;SDS011;16639;51.488;0.152;2022-07-01T03:38:26;4.68;;;2.33;;
29730;SDS011;16639;51.488;0.152;2022-07-01T03:40:53;9.40;;;2.25;;
29730;SDS011;16639;51.488;0.152;2022-07-01T03:43:21;7.40;;;2.75;;
29730;SDS011;16639;51.488;0.152;2022-07-01T03:45:48;8.45;;;2.15;;
29730;SDS011;16639;51.488;0.152;2022-07-01T03:48:15;6.53;;;2.20;;
29730;SDS011;16639;51.488;0.152;2022-07-01T03:50:43;6.95;;;2.22;;
29730;SDS011;16639;51.488;0.152;2022-07-01T03:53:10;6.40;;;2.35;;
29730;SDS011;16639;51.488;0.152;2022-07-01T03:55:56;7.93;;;2.22;;
29730;SDS011;16639;51.488;0.152;2022-07-01T03:58:24;9.15;;;2.65;;
29730;SDS011;16639;51.488;0.152;2022-07-01T04:00:51;8.07;;;2.13;;
29730;SDS011;16639;51.488;0.152;2022-07-01T04:03:18;6.10;;;2.00;;
29730;SDS011;16639;51.488;0.152;2022-07-01T04:05:46;4.22;;;2.10;;
29730;SDS011;16639;51.488;0.152;2022-07-01T04:08:13;13.85;;;2.92;;
29730;SDS011;16639;51.488;0.152;2022-07-01T04:10:41;14.25;;;2.30;;
29730;SDS011;16639;51.488;0.152;2022-07-01T04:13:08;10.15;;;2.50;;
29730;SDS011;16639;51.488;0.152;2022-07-01T04:15:56;10.50;;;2.80;;
29730;SDS011;16639;51.488;0.152;2022-07-01T04:18:28;5.47;;;2.08;;
29730;SDS011;16639;51.488;0.152;2022-07-01T04:20:56;10.20;;;3.00;;
29730;SDS011;16639;51.488;0.152;2022-07-01T04:26:10;10.13;;;2.40;;
29730;SDS011;16639;51.488;0.152;2022-07-01T04:28:57;13.40;;;2.75;;
29730;SDS011;16639;51.488;0.152;2022-07-01T04:31:25;8.82;;;2.67;;
29730;SDS011;16639;51.488;0.152;2022-07-01T04:33:52;14.90;;;3.20;;
29730;SDS011;16639;51.488;0.152;2022-07-01T04:36:19;7.30;;;2.65;;
29730;SDS011;16639;51.488;0.152;2022-07-01T04:38:47;10.75;;;2.30;;
29730;SDS011;16639;51.488;0.152;2022-07-01T04:41:14;12.18;;;2.78;;
29730;SDS011;16639;51.488;0.152;2022-07-01T04:44:01;5.73;;;2.20;;
29730;SDS011;16639;51.488;0.152;2022-07-01T04:46:28;8.63;;;2.95;;
29730;SDS011;16639;51.488;0.152;2022-07-01T04:48:56;11.23;;;3.58;;
29730;SDS011;16639;51.488;0.152;2022-07-01T04:51:23;3.53;;;2.10;;
29730;SDS011;16639;51.488;0.152;2022-07-01T04:53:51;8.88;;;2.45;;
29730;SDS011;16639;51.488;0.152;2022-07-01T04:56:18;10.00;;;2.15;;
29730;SDS011;16639;51.488;0.152;2022-07-01T04:58:46;11.98;;;2.80;;
29730;SDS011;16639;51.488;0.152;2022-07-01T05:01:14;6.88;;;3.15;;
29730;SDS011;16639;51.488;0.152;2022-07-01T05:03:41;9.27;;;2.78;;
29730;SDS011;16639;51.488;0.152;2022-07-01T05:06:09;7.60;;;2.40;;
29730;SDS011;16639;51.488;0.152;2022-07-01T05:08:36;13.93;;;3.45;;
29730;SDS011;16639;51.488;0.152;2022-07-01T05:11:04;8.10;;;2.30;;
29730;SDS011;16639;51.488;0.152;2022-07-01T05:13:31;9.48;;;2.50;;
29730;SDS011;16639;51.488;0.152;2022-07-01T05:16:02;10.15;;;2.90;;
29730;SDS011;16639;51.488;0.152;2022-07-01T05:18:30;9.57;;;2.60;;
29730;SDS011;16639;51.488;0.152;2022-07-01T05:21:16;6.75;;;2.85;;
29730;SDS011;16639;51.488;0.152;2022-07-01T05:24:03;11.07;;;2.50;;
29730;SDS011;16639;51.488;0.152;2022-07-01T05:26:30;9.77;;;3.40;;
29730;SDS011;16639;51.488;0.152;2022-07-01T05:28:58;4.32;;;2.10;;
29730;SDS011;16639;51.488;0.152;2022-07-01T05:31:26;4.40;;;2.40;;
29730;SDS011;16639;51.488;0.152;2022-07-01T05:33:54;5.80;;;2.95;;
29730;SDS011;16639;51.488;0.152;2022-07-01T05:36:24;8.18;;;2.40;;
29730;SDS011;16639;51.488;0.152;2022-07-01T05:38:51;11.80;;;2.70;;
29730;SDS011;16639;51.488;0.152;2022-07-01T05:41:19;6.00;;;2.28;;
29730;SDS011;16639;51.488;0.152;2022-07-01T05:43:46;9.30;;;3.22;;
29730;SDS011;16639;51.488;0.152;2022-07-01T05:46:14;4.95;;;2.15;;
29730;SDS011;16639;51.488;0.152;2022-07-01T05:48:41;8.57;;;3.90;;
29730;SDS011;16639;51.488;0.152;2022-07-01T05:51:09;9.98;;;3.33;;
29730;SDS011;16639;51.488;0.152;2022-07-01T05:53:36;5.50;;;2.20;;
29730;SDS011;16639;51.488;0.152;2022-07-01T05:56:04;6.97;;;2.70;;
29730;SDS011;16639;51.488;0.152;2022-07-01T05:58:31;6.53;;;2.40;;
29730;SDS011;16639;51.488;0.152;2022-07-01T06:00:59;9.27;;;3.05;;
29730;SDS011;16639;51.488;0.152;2022-07-01T06:03:35;6.63;;;2.50;;
29730;SDS011;16639;51.488;0.152;2022-07-01T06:06:03;10.23;;;2.55;;
29730;SDS011;16639;51.488;0.152;2022-07-01T06:08:30;7.20;;;2.70;;
29730;SDS011;16639;51.488;0.152;2022-07-01T06:11:02;10.55;;;3.65;;
29730;SDS011;16639;51.488;0.152;2022-07-01T06:13:30;5.00;;;2.70;;
29730;SDS011;16639;51.488;0.152;2022-07-01T06:15:58;6.90;;;2.83;;
29730;SDS011;16639;51.488;0.152;2022-07-01T06:18:25;9.52;;;2.97;;
29730;SDS011;16639;51.488;0.152;2022-07-01T06:20:53;5.57;;;2.47;;
29730;SDS011;16639;51.488;0.152;2022-07-01T06:23:20;6.18;;;2.05;;
29730;SDS011;16639;51.488;0.152;2022-07-01T06:25:48;7.07;;;2.72;;
29730;SDS011;16639;51.488;0.152;2022-07-01T06:28:15;7.63;;;3.17;;
29730;SDS011;16639;51.488;0.152;2022-07-01T06:30:43;10.55;;;2.38;;
29730;SDS011;16639;51.488;0.152;2022-07-01T06:33:12;4.30;;;2.25;;
29730;SDS011;16639;51.488;0.152;2022-07-01T06:35:40;7.07;;;2.65;;
29730;SDS011;16639;51.488;0.152;2022-07-01T06:38:07;5.43;;;2.25;;
29730;SDS011;16639;51.488;0.152;2022-07-01T06:40:35;5.70;;;2.90;;
29730;SDS011;16639;51.488;0.152;2022-07-01T06:43:02;5.32;;;2.75;;
29730;SDS011;16639;51.488;0.152;2022-07-01T06:45:30;5.85;;;2.58;;
29730;SDS011;16639;51.488;0.152;2022-07-01T06:47:58;5.93;;;2.78;;
29730;SDS011;16639;51.488;0.152;2022-07-01T06:50:25;5.78;;;2.60;;
29730;SDS011;16639;51.488;0.152;2022-07-01T06:52:52;3.85;;;1.95;;
29730;SDS011;16639;51.488;0.152;2022-07-01T06:55:21;7.78;;;2.38;;
29730;SDS011;16639;51.488;0.152;2022-07-01T06:57:48;9.88;;;2.28;;
29730;SDS011;16639;51.488;0.152;2022-07-01T07:00:16;6.30;;;2.33;;
29730;SDS011;16639;51.488;0.152;2022-07-01T07:02:43;5.40;;;2.00;;
29730;SDS011;16639;51.488;0.152;2022-07-01T07:05:11;4.70;;;2.50;;
29730;SDS011;16639;51.488;0.152;2022-07-01T07:07:38;5.60;;;2.28;;
29730;SDS011;16639;51.488;0.152;2022-07-01T07:10:06;4.65;;;2.17;;
29730;SDS011;16639;51.488;0.152;2022-07-01T07:12:34;7.35;;;2.17;;
29730;SDS011;16639;51.488;0.152;2022-07-01T07:15:01;6.13;;;2.63;;
29730;SDS011;16639;51.488;0.152;2022-07-01T07:17:28;3.08;;;1.98;;
29730;SDS011;16639;51.488;0.152;2022-07-01T07:19:56;6.15;;;2.85;;
29730;SDS011;16639;51.488;0.152;2022-07-01T07:22:23;3.75;;;2.28;;
29730;SDS011;16639;51.488;0.152;2022-07-01T07:24:50;5.60;;;3.88;;
29730;SDS011;16639;51.488;0.152;2022-07-01T07:27:18;9.32;;;4.40;;
29730;SDS011;16639;51.488;0.152;2022-07-01T07:29:45;8.20;;;4.28;;
29730;SDS011;16639;51.488;0.152;2022-07-01T07:32:12;8.00;;;4.25;;
29730;SDS011;16639;51.488;0.152;2022-07-01T07:34:40;8.65;;;4.53;;
29730;SDS011;16639;51.488;0.152;2022-07-01T07:37:08;4.97;;;3.30;;
29730;SDS011;16639;51.488;0.152;2022-07-01T07:39:35;10.52;;;3.55;;
29730;SDS011;16639;51.488;0.152;2022-07-01T07:42:03;7.10;;;3.38;;
29730;SDS011;16639;51.488;0.152;2022-07-01T07:44:31;9.20;;;4.00;;
29730;SDS011;16639;51.488;0.152;2022-07-01T07:46:58;17.67;;;3.65;;
29730;SDS011;16639;51.488;0.152;2022-07-01T07:49:26;3.97;;;2.30;;
29730;SDS011;16639;51.488;0.152;2022-07-01T07:51:53;5.88;;;2.42;;
29730;SDS011;16639;51.488;0.152;2022-07-01T07:54:21;3.15;;;2.13;;
29730;SDS011;16639;51.488;0.152;2022-07-01T07:56:48;7.28;;;2.17;;
29730;SDS011;16639;51.488;0.152;2022-07-01T07:59:15;5.70;;;2.00;;
29730;SDS011;16639;51.488;0.152;2022-07-01T08:01:43;6.40;;;1.95;;
29730;SDS011;16639;51.488;0.152;2022-07-01T08:04:10;6.25;;;1.67;;
29730;SDS011;16639;51.488;0.152;2022-07-01T08:06:39;4.10;;;1.67;;
29730;SDS011;16639;51.488;0.152;2022-07-01T08:09:06;3.10;;;1.70;;
29730;SDS011;16639;51.488;0.152;2022-07-01T08:11:33;3.63;;;1.60;;
29730;SDS011;16639;51.488;0.152;2022-07-01T08:14:01;6.32;;;2.00;;
29730;SDS011;16639;51.488;0.152;2022-07-01T08:16:28;5.88;;;1.95;;
29730;SDS011;16639;51.488;0.152;2022-07-01T08:18:56;5.00;;;2.08;;
29730;SDS011;16639;51.488;0.152;2022-07-01T08:21:23;3.92;;;1.95;;
29730;SDS011;16639;51.488;0.152;2022-07-01T08:23:51;5.07;;;2.08;;
29730;SDS011;16639;51.488;0.152;2022-07-01T08:26:18;8.15;;;2.25;;
29730;SDS011;16639;51.488;0.152;2022-07-01T08:28:46;4.53;;;1.70;;
29730;SDS011;16639;51.488;0.152;2022-07-01T08:31:13;4.93;;;1.77;;
29730;SDS011;16639;51.488;0.152;2022-07-01T08:33:41;6.28;;;2.00;;
29730;SDS011;16639;51.488;0.152;2022-07-01T08:36:10;2.40;;;1.80;;
29730;SDS011;16639;51.488;0.152;2022-07-01T08:38:37;7.00;;;1.88;;
29730;SDS011;16639;51.488;0.152;2022-07-01T08:41:05;6.20;;;2.33;;
29730;SDS011;16639;51.488;0.152;2022-07-01T08:43:33;3.47;;;1.83;;
29730;SDS011;16639;51.488;0.152;2022-07-01T08:46:01;4.88;;;1.77;;
29730;SDS011;16639;51.488;0.152;2022-07-01T08:48:29;2.47;;;1.80;;
29730;SDS011;16639;51.488;0.152;2022-07-01T08:50:57;4.05;;;2.00;;
29730;SDS011;16639;51.488;0.152;2022-07-01T08:53:25;4.72;;;2.15;;
29730;SDS011;16639;51.488;0.152;2022-07-01T08:55:53;5.50;;;2.28;;
29730;SDS011;16639;51.488;0.152;2022-07-01T08:58:39;9.23;;;1.93;;
29730;SDS011;16639;51.488;0.152;2022-07-01T09:01:13;5.18;;;1.65;;
29730;SDS011;16639;51.488;0.152;2022-07-01T09:03:44;2.33;;;1.65;;
29730;SDS011;16639;51.488;0.152;2022-07-01T09:06:18;5.72;;;2.05;;
29730;SDS011;16639;51.488;0.152;2022-07-01T09:08:48;6.63;;;2.33;;
29730;SDS011;16639;51.488;0.152;2022-07-01T09:11:17;7.63;;;2.00;;
29730;SDS011;16639;51.488;0.152;2022-07-01T09:14:33;5.45;;;2.00;;
29730;SDS011;16639;51.488;0.152;2022-07-01T09:19:12;3.00;;;1.30;;
29730;SDS011;16639;51.488;0.152;2022-07-01T09:21:41;7.35;;;2.50;;
29730;SDS011;16639;51.488;0.152;2022-07-01T09:29:42;2.42;;;1.60;;
29730;SDS011;16639;51.488;0.152;2022-07-01T09:32:11;6.47;;;1.77;;
29730;SDS011;16639;51.488;0.152;2022-07-01T09:34:42;3.65;;;1.70;;
29730;SDS011;16639;51.488;0.152;2022-07-01T09:37:18;7.07;;;1.80;;
29730;SDS011;16639;51.488;0.152;2022-07-01T09:42:16;4.47;;;2.20;;
29730;SDS011;16639;51.488;0.152;2022-07-01T09:47:30;4.82;;;1.67;;
29730;SDS011;16639;51.488;0.152;2022-07-01T09:49:59;2.97;;;1.60;;
29730;SDS011;16639;51.488;0.152;2022-07-01T09:52:27;7.63;;;1.42;;
29730;SDS011;16639;51.488;0.152;2022-07-01T09:55:05;2.45;;;1.95;;
29730;SDS011;16639;51.488;0.152;2022-07-01T09:57:34;2.28;;;1.48;;
29730;SDS011;16639;51.488;0.152;2022-07-01T10:00:03;4.47;;;1.30;;
29730;SDS011;16639;51.488;0.152;2022-07-01T10:02:34;6.57;;;2.00;;
29730;SDS011;16639;51.488;0.152;2022-07-01T10:05:09;6.03;;;1.95;;
29730;SDS011;16639;51.488;0.152;2022-07-01T10:13:28;5.82;;;1.70;;
29730;SDS011;16639;51.488;0.152;2022-07-01T10:16:00;5.50;;;1.70;;
29730;SDS011;16639;51.488;0.152;2022-07-01T10:18:30;3.33;;;1.73;;
29730;SDS011;16639;51.488;0.152;2022-07-01T10:20:58;3.58;;;2.25;;
29730;SDS011;16639;51.488;0.152;2022-07-01T10:23:37;5.22;;;1.80;;
29730;SDS011;16639;51.488;0.152;2022-07-01T10:26:09;6.03;;;1.70;;
29730;SDS011;16639;51.488;0.152;2022-07-01T10:31:12;4.65;;;1.65;;
29730;SDS011;16639;51.488;0.152;2022-07-01T10:33:51;3.22;;;1.50;;
29730;SDS011;16639;51.488;0.152;2022-07-01T10:36:25;4.13;;;1.20;;
29730;SDS011;16639;51.488;0.152;2022-07-01T10:41:31;6.03;;;1.80;;
29730;SDS011;16639;51.488;0.152;2022-07-01T10:44:04;3.88;;;1.65;;
29730;SDS011;16639;51.488;0.152;2022-07-01T10:52:21;4.97;;;1.30;;
29730;SDS011;16639;51.488;0.152;2022-07-01T10:54:52;4.35;;;1.77;;
29730;SDS011;16639;51.488;0.152;2022-07-01T10:57:26;4.13;;;1.98;;
29730;SDS011;16639;51.488;0.152;2022-07-01T11:02:26;5.03;;;1.60;;
29730;SDS011;16639;51.488;0.152;2022-07-01T11:04:58;3.65;;;1.75;;
29730;SDS011;16639;51.488;0.152;2022-07-01T11:07:29;6.50;;;1.40;;
29730;SDS011;16639;51.488;0.152;2022-07-01T11:09:58;8.20;;;1.52;;
29730;SDS011;16639;51.488;0.152;2022-07-01T11:12:29;4.32;;;2.33;;
29730;SDS011;16639;51.488;0.152;2022-07-01T11:14:58;3.40;;;1.88;;
29730;SDS011;16639;51.488;0.152;2022-07-01T11:17:28;2.67;;;1.40;;
29730;SDS011;16639;51.488;0.152;2022-07-01T11:19:56;2.15;;;1.25;;
29730;SDS011;16639;51.488;0.152;2022-07-01T11:22:26;2.22;;;1.25;;
29730;SDS011;16639;51.488;0.152;2022-07-01T11:25:02;3.90;;;2.13;;
29730;SDS011;16639;51.488;0.152;2022-07-01T11:27:33;5.18;;;1.55;;
29730;SDS011;16639;51.488;0.152;2022-07-01T11:30:05;3.47;;;1.10;;
29730;SDS011;16639;51.488;0.152;2022-07-01T11:32:36;1.83;;;1.00;;
29730;SDS011;16639;51.488;0.152;2022-07-01T11:35:13;2.15;;;1.25;;
29730;SDS011;16639;51.488;0.152;2022-07-01T11:38:10;5.82;;;1.80;;
29730;SDS011;16639;51.488;0.152;2022-07-01T11:40:59;2.30;;;1.43;;
29730;SDS011;16639;51.488;0.152;2022-07-01T11:43:32;5.25;;;1.63;;
29730;SDS011;16639;51.488;0.152;2022-07-01T11:46:05;2.97;;;1.30;;
29730;SDS011;16639;51.488;0.152;2022-07-01T11:48:35;3.88;;;1.33;;
29730;SDS011;16639;51.488;0.152;2022-07-01T11:51:13;3.10;;;1.20;;
29730;SDS011;16639;51.488;0.152;2022-07-01T11:53:45;2.90;;;1.30;;
29730;SDS011;16639;51.488;0.152;2022-07-01T11:56:16;2.38;;;1.50;;
29730;SDS011;16639;51.488;0.152;2022-07-01T11:58:54;4.47;;;1.00;;
29730;SDS011;16639;51.488;0.152;2022-07-01T12:01:24;4.60;;;1.20;;
29730;SDS011;16639;51.488;0.152;2022-07-01T12:03:53;8.70;;;1.50;;
29730;SDS011;16639;51.488;0.152;2022-07-01T12:06:22;5.85;;;1.90;;
29730;SDS011;16639;51.488;0.152;2022-07-01T12:08:50;3.90;;;1.33;;
29730;SDS011;16639;51.488;0.152;2022-07-01T12:11:19;4.65;;;1.38;;
29730;SDS011;16639;51.488;0.152;2022-07-01T12:13:49;7.07;;;1.27;;
29730;SDS011;16639;51.488;0.152;2022-07-01T12:16:17;5.82;;;1.80;;
29730;SDS011;16639;51.488;0.152;2022-07-01T12:21:21;3.53;;;1.35;;
29730;SDS011;16639;51.488;0.152;2022-07-01T12:24:09;5.22;;;1.50;;
29730;SDS011;16639;51.488;0.152;2022-07-01T12:26:52;9.55;;;1.80;;
29730;SDS011;16639;51.488;0.152;2022-07-01T12:29:27;7.22;;;1.30;;
29730;SDS011;16639;51.488;0.152;2022-07-01T12:32:04;6.40;;;1.75;;
29730;SDS011;16639;51.488;0.152;2022-07-01T12:34:40;2.38;;;1.60;;
29730;SDS011;16639;51.488;0.152;2022-07-01T12:39:53;5.10;;;2.17;;
29730;SDS011;16639;51.488;0.152;2022-07-01T12:42:26;5.80;;;1.55;;
29730;SDS011;16639;51.488;0.152;2022-07-01T12:44:58;7.43;;;1.48;;
29730;SDS011;16639;51.488;0.152;2022-07-01T12:47:32;6.75;;;1.90;;
29730;SDS011;16639;51.488;0.152;2022-07-01T12:53:00;6.55;;;1.73;;
29730;SDS011;16639;51.488;0.152;2022-07-01T12:58:00;3.70;;;1.70;;
29730;SDS011;16639;51.488;0.152;2022-07-01T13:00:29;5.22;;;2.00;;
29730;SDS011;16639;51.488;0.152;2022-07-01T13:02:58;3.47;;;1.60;;
29730;SDS011;16639;51.488;0.152;2022-07-01T13:05:30;6.53;;;1.50;;
29730;SDS011;16639;51.488;0.152;2022-07-01T13:07:59;4.57;;;1.98;;
29730;SDS011;16639;51.488;0.152;2022-07-01T13:10:27;7.13;;;1.50;;
29730;SDS011;16639;51.488;0.152;2022-07-01T13:12:55;6.22;;;1.50;;
29730;SDS011;16639;51.488;0.152;2022-07-01T13:15:23;3.05;;;1.25;;
29730;SDS011;16639;51.488;0.152;2022-07-01T13:17:51;5.82;;;1.48;;
29730;SDS011;16639;51.488;0.152;2022-07-01T13:20:20;2.65;;;1.13;;
29730;SDS011;16639;51.488;0.152;2022-07-01T13:22:48;6.50;;;1.55;;
29730;SDS011;16639;51.488;0.152;2022-07-01T13:25:16;3.35;;;1.63;;
29730;SDS011;16639;51.488;0.152;2022-07-01T13:27:43;4.47;;;1.42;;
29730;SDS011;16639;51.488;0.152;2022-07-01T13:30:12;2.40;;;1.40;;
29730;SDS011;16639;51.488;0.152;2022-07-01T13:32:40;5.80;;;1.33;;
29730;SDS011;16639;51.488;0.152;2022-07-01T13:35:08;3.35;;;1.50;;
29730;SDS011;16639;51.488;0.152;2022-07-01T13:37:39;4.35;;;1.17;;
29730;SDS011;16639;51.488;0.152;2022-07-01T13:40:07;4.65;;;1.50;;
29730;SDS011;16639;51.488;0.152;2022-07-01T13:42:35;3.00;;;1.63;;
29730;SDS011;16639;51.488;0.152;2022-07-01T13:45:03;5.03;;;1.45;;
29730;SDS011;16639;51.488;0.152;2022-07-01T13:47:31;3.10;;;1.20;;
29730;SDS011;16639;51.488;0.152;2022-07-01T13:49:59;2.30;;;1.00;;
29730;SDS011;16639;51.488;0.152;2022-07-01T13:52:27;2.85;;;0.95;;
29730;SDS011;16639;51.488;0.152;2022-07-01T13:54:55;4.78;;;1.17;;
29730;SDS011;16639;51.488;0.152;2022-07-01T13:57:23;5.13;;;1.70;;
29730;SDS011;16639;51.488;0.152;2022-07-01T13:59:51;3.33;;;1.52;;
29730;SDS011;16639;51.488;0.152;2022-07-01T14:02:19;3.33;;;1.50;;
29730;SDS011;16639;51.488;0.152;2022-07-01T14:04:47;2.72;;;1.58;;
29730;SDS011;16639;51.488;0.152;2022-07-01T14:07:15;3.78;;;1.58;;
29730;SDS011;16639;51.488;0.152;2022-07-01T14:09:42;4.32;;;1.40;;
29730;SDS011;16639;51.488;0.152;2022-07-01T14:12:11;3.25;;;1.38;;
29730;SDS011;16639;51.488;0.152;2022-07-01T14:14:49;4.32;;;1.65;;
29730;SDS011;16639;51.488;0.152;2022-07-01T14:17:16;4.32;;;1.40;;
29730;SDS011;16639;51.488;0.152;2022-07-01T14:19:44;6.25;;;1.70;;
29730;SDS011;16639;51.488;0.152;2022-07-01T14:22:11;5.90;;;1.80;;
29730;SDS011;16639;51.488;0.152;2022-07-01T14:24:39;6.32;;;1.63;;
29730;SDS011;16639;51.488;0.152;2022-07-01T14:27:07;5.05;;;1.80;;
29730;SDS011;16639;51.488;0.152;2022-07-01T14:29:34;2.85;;;1.65;;
29730;SDS011;16639;51.488;0.152;2022-07-01T14:32:02;3.95;;;1.60;;
29730;SDS011;16639;51.488;0.152;2022-07-01T14:34:29;2.53;;;1.35;;
29730;SDS011;16639;51.488;0.152;2022-07-01T14:36:57;10.50;;;2.00;;
29730;SDS011;16639;51.488;0.152;2022-07-01T14:39:24;5.80;;;2.33;;
29730;SDS011;16639;51.488;0.152;2022-07-01T14:41:52;3.00;;;1.63;;
29730;SDS011;16639;51.488;0.152;2022-07-01T14:44:23;6.05;;;1.90;;
29730;SDS011;16639;51.488;0.152;2022-07-01T14:46:50;3.22;;;2.00;;
29730;SDS011;16639;51.488;0.152;2022-07-01T14:49:18;9.32;;;2.60;;
29730;SDS011;16639;51.488;0.152;2022-07-01T14:51:45;7.05;;;2.13;;
29730;SDS011;16639;51.488;0.152;2022-07-01T14:54:14;4.07;;;1.90;;
29730;SDS011;16639;51.488;0.152;2022-07-01T14:56:41;5.90;;;1.80;;
29730;SDS011;16639;51.488;0.152;2022-07-01T14:59:09;3.53;;;1.80;;
29730;SDS011;16639;51.488;0.152;2022-07-01T15:01:37;7.55;;;1.90;;
29730;SDS011;16639;51.488;0.152;2022-07-01T15:04:05;2.20;;;1.48;;
29730;SDS011;16639;51.488;0.152;2022-07-01T15:06:32;3.47;;;1.65;;
29730;SDS011;16639;51.488;0.152;2022-07-01T15:08:59;4.25;;;2.05;;
29730;SDS011;16639;51.488;0.152;2022-07-01T15:11:27;4.20;;;1.58;;
29730;SDS011;16639;51.488;0.152;2022-07-01T15:13:54;1.70;;;1.02;;
29730;SDS011;16639;51.488;0.152;2022-07-01T15:16:21;2.40;;;1.00;;
29730;SDS011;16639;51.488;0.152;2022-07-01T15:18:50;2.80;;;1.30;;
29730;SDS011;16639;51.488;0.152;2022-07-01T15:21:18;2.75;;;1.10;;
29730;SDS011;16639;51.488;0.152;2022-07-01T15:23:46;3.03;;;1.23;;
29730;SDS011;16639;51.488;0.152;2022-07-01T15:26:13;5.68;;;1.60;;
29730;SDS011;16639;51.488;0.152;2022-07-01T15:28:41;6.70;;;2.10;;
29730;SDS011;16639;51.488;0.152;2022-07-01T15:31:08;3.03;;;1.42;;
29730;SDS011;16639;51.488;0.152;2022-07-01T15:33:55;5.82;;;1.10;;
29730;SDS011;16639;51.488;0.152;2022-07-01T15:36:23;3.17;;;1.20;;
29730;SDS011;16639;51.488;0.152;2022-07-01T15:38:50;3.72;;;1.65;;
29730;SDS011;16639;51.488;0.152;2022-07-01T15:41:18;2.22;;;1.02;;
29730;SDS011;16639;51.488;0.152;2022-07-01T15:43:45;2.25;;;1.30;;